sensor_id;sensor_type;location;lat;lon;timestamp;P1;durP1;ratioP1;P2;durP2;ratioP2
4810;SDS011;2419;51.276;6.472;2022-08-01T00:01:15;2.30;;;2.00;;
4810;SDS011;2419;51.276;6.472;2022-08-01T00:03:43;3.43;;;2.20;;
4810;SDS011;2419;51.276;6.472;2022-08-01T00:06:11;1.70;;;1.60;;
4810;SDS011;2419;51.276;6.472;2022-08-01T00:08:41;2.60;;;2.40;;
4810;SDS011;2419;51.276;6.472;2022-08-01T00:11:09;2.53;;;1.90;;
4810;SDS011;2419;51.276;6.472;2022-08-01T00:13:37;2.63;;;2.00;;
4810;SDS011;2419;51.276;6.472;2022-08-01T00:16:05;1.60;;;1.50;;
4810;SDS011;2419;51.276;6.472;2022-08-01T00:18:34;2.77;;;2.40;;
4810;SDS011;2419;51.276;6.472;2022-08-01T00:21:03;5.33;;;1.53;;
4810;SDS011;2419;51.276;6.472;2022-08-01T00:23:31;2.00;;;1.80;;
4810;SDS011;2419;51.276;6.472;2022-08-01T00:26:01;2.57;;;2.07;;
4810;SDS011;2419;51.276;6.472;2022-08-01T00:28:29;2.20;;;2.10;;
4810;SDS011;2419;51.276;6.472;2022-08-01T00:30:57;2.53;;;2.07;;
4810;SDS011;2419;51.276;6.472;2022-08-01T00:33:25;1.93;;;1.73;;
4810;SDS011;2419;51.276;6.472;2022-08-01T00:35:53;2.73;;;2.10;;
4810;SDS011;2419;51.276;6.472;2022-08-01T00:38:22;2.77;;;2.00;;
4810;SDS011;2419;51.276;6.472;2022-08-01T00:40:51;3.13;;;1.87;;
4810;SDS011;2419;51.276;6.472;2022-08-01T00:43:21;2.83;;;1.80;;
4810;SDS011;2419;51.276;6.472;2022-08-01T00:45:49;1.73;;;1.63;;
4810;SDS011;2419;51.276;6.472;2022-08-01T00:48:17;2.23;;;2.07;;
4810;SDS011;2419;51.276;6.472;2022-08-01T00:50:45;2.73;;;2.30;;
4810;SDS011;2419;51.276;6.472;2022-08-01T00:53:14;2.43;;;2.00;;
4810;SDS011;2419;51.276;6.472;2022-08-01T00:55:44;2.10;;;1.90;;
4810;SDS011;2419;51.276;6.472;2022-08-01T00:58:14;1.80;;;1.70;;
4810;SDS011;2419;51.276;6.472;2022-08-01T01:00:44;2.70;;;2.13;;
4810;SDS011;2419;51.276;6.472;2022-08-01T01:03:19;2.63;;;1.97;;
4810;SDS011;2419;51.276;6.472;2022-08-01T01:06:13;2.73;;;2.17;;
4810;SDS011;2419;51.276;6.472;2022-08-01T01:08:55;3.17;;;2.40;;
4810;SDS011;2419;51.276;6.472;2022-08-01T01:11:32;2.17;;;1.83;;
4810;SDS011;2419;51.276;6.472;2022-08-01T01:14:08;2.50;;;1.70;;
4810;SDS011;2419;51.276;6.472;2022-08-01T01:16:42;2.73;;;2.20;;
4810;SDS011;2419;51.276;6.472;2022-08-01T01:19:13;3.20;;;2.17;;
4810;SDS011;2419;51.276;6.472;2022-08-01T01:21:55;2.23;;;2.03;;
4810;SDS011;2419;51.276;6.472;2022-08-01T01:24:37;2.23;;;1.93;;
4810;SDS011;2419;51.276;6.472;2022-08-01T01:27:15;2.20;;;2.00;;
4810;SDS011;2419;51.276;6.472;2022-08-01T01:29:51;3.60;;;2.77;;
4810;SDS011;2419;51.276;6.472;2022-08-01T01:32:27;2.93;;;2.63;;
4810;SDS011;2419;51.276;6.472;2022-08-01T01:35:00;3.03;;;2.70;;
4810;SDS011;2419;51.276;6.472;2022-08-01T01:37:31;2.80;;;2.20;;
4810;SDS011;2419;51.276;6.472;2022-08-01T01:40:02;3.23;;;2.33;;
4810;SDS011;2419;51.276;6.472;2022-08-01T01:42:33;2.70;;;2.10;;
4810;SDS011;2419;51.276;6.472;2022-08-01T01:45:04;4.10;;;2.63;;
4810;SDS011;2419;51.276;6.472;2022-08-01T01:47:34;3.80;;;2.70;;
4810;SDS011;2419;51.276;6.472;2022-08-01T01:50:05;4.50;;;3.00;;
4810;SDS011;2419;51.276;6.472;2022-08-01T01:52:37;4.50;;;2.60;;
4810;SDS011;2419;51.276;6.472;2022-08-01T01:55:07;3.03;;;2.77;;
4810;SDS011;2419;51.276;6.472;2022-08-01T01:57:37;2.77;;;2.33;;
4810;SDS011;2419;51.276;6.472;2022-08-01T02:00:10;3.63;;;2.73;;
4810;SDS011;2419;51.276;6.472;2022-08-01T02:02:40;2.90;;;2.50;;
4810;SDS011;2419;51.276;6.472;2022-08-01T02:05:10;2.90;;;2.30;;
4810;SDS011;2419;51.276;6.472;2022-08-01T02:07:40;2.90;;;2.67;;
4810;SDS011;2419;51.276;6.472;2022-08-01T02:10:09;2.20;;;2.00;;
4810;SDS011;2419;51.276;6.472;2022-08-01T02:12:39;3.53;;;2.53;;
4810;SDS011;2419;51.276;6.472;2022-08-01T02:15:13;2.37;;;2.07;;
4810;SDS011;2419;51.276;6.472;2022-08-01T02:17:42;3.27;;;2.63;;
4810;SDS011;2419;51.276;6.472;2022-08-01T02:20:12;2.60;;;2.27;;
4810;SDS011;2419;51.276;6.472;2022-08-01T02:22:42;5.07;;;2.20;;
4810;SDS011;2419;51.276;6.472;2022-08-01T02:25:15;3.90;;;2.47;;
4810;SDS011;2419;51.276;6.472;2022-08-01T02:27:50;3.03;;;2.27;;
4810;SDS011;2419;51.276;6.472;2022-08-01T02:30:28;4.27;;;2.70;;
4810;SDS011;2419;51.276;6.472;2022-08-01T02:33:02;4.20;;;3.27;;
4810;SDS011;2419;51.276;6.472;2022-08-01T02:35:41;4.03;;;2.67;;
4810;SDS011;2419;51.276;6.472;2022-08-01T02:38:33;3.03;;;2.50;;
4810;SDS011;2419;51.276;6.472;2022-08-01T02:41:05;4.00;;;3.10;;
4810;SDS011;2419;51.276;6.472;2022-08-01T02:43:37;2.77;;;2.57;;
4810;SDS011;2419;51.276;6.472;2022-08-01T02:46:11;3.83;;;2.70;;
4810;SDS011;2419;51.276;6.472;2022-08-01T02:48:45;3.83;;;3.00;;
4810;SDS011;2419;51.276;6.472;2022-08-01T02:51:16;3.80;;;2.50;;
4810;SDS011;2419;51.276;6.472;2022-08-01T02:53:47;3.77;;;2.70;;
4810;SDS011;2419;51.276;6.472;2022-08-01T02:56:17;4.27;;;3.07;;
4810;SDS011;2419;51.276;6.472;2022-08-01T02:58:47;3.90;;;3.20;;
4810;SDS011;2419;51.276;6.472;2022-08-01T03:01:19;5.50;;;3.70;;
4810;SDS011;2419;51.276;6.472;2022-08-01T03:03:52;3.23;;;2.50;;
4810;SDS011;2419;51.276;6.472;2022-08-01T03:06:20;4.43;;;3.40;;
4810;SDS011;2419;51.276;6.472;2022-08-01T03:08:49;4.50;;;2.63;;
4810;SDS011;2419;51.276;6.472;2022-08-01T03:11:18;3.50;;;2.63;;
4810;SDS011;2419;51.276;6.472;2022-08-01T03:13:47;4.60;;;3.57;;
4810;SDS011;2419;51.276;6.472;2022-08-01T03:16:17;4.73;;;3.10;;
4810;SDS011;2419;51.276;6.472;2022-08-01T03:18:49;5.33;;;3.77;;
4810;SDS011;2419;51.276;6.472;2022-08-01T03:21:19;5.50;;;3.70;;
4810;SDS011;2419;51.276;6.472;2022-08-01T03:23:49;3.70;;;3.20;;
4810;SDS011;2419;51.276;6.472;2022-08-01T03:26:24;4.33;;;3.20;;
4810;SDS011;2419;51.276;6.472;2022-08-01T03:28:55;3.93;;;3.07;;
4810;SDS011;2419;51.276;6.472;2022-08-01T03:31:26;5.50;;;3.83;;
4810;SDS011;2419;51.276;6.472;2022-08-01T03:33:55;4.00;;;3.40;;
4810;SDS011;2419;51.276;6.472;2022-08-01T03:36:31;8.27;;;4.17;;
4810;SDS011;2419;51.276;6.472;2022-08-01T03:39:03;6.83;;;4.47;;
4810;SDS011;2419;51.276;6.472;2022-08-01T03:41:37;4.60;;;3.40;;
4810;SDS011;2419;51.276;6.472;2022-08-01T03:44:10;5.37;;;3.97;;
4810;SDS011;2419;51.276;6.472;2022-08-01T03:46:43;6.10;;;4.13;;
4810;SDS011;2419;51.276;6.472;2022-08-01T03:49:16;6.03;;;3.53;;
4810;SDS011;2419;51.276;6.472;2022-08-01T03:51:47;4.83;;;3.60;;
4810;SDS011;2419;51.276;6.472;2022-08-01T03:54:20;6.10;;;3.87;;
4810;SDS011;2419;51.276;6.472;2022-08-01T03:56:51;5.97;;;4.13;;
4810;SDS011;2419;51.276;6.472;2022-08-01T03:59:19;7.63;;;4.67;;
4810;SDS011;2419;51.276;6.472;2022-08-01T04:01:50;7.00;;;4.20;;
4810;SDS011;2419;51.276;6.472;2022-08-01T04:04:18;6.03;;;4.23;;
4810;SDS011;2419;51.276;6.472;2022-08-01T04:06:47;5.67;;;4.00;;
4810;SDS011;2419;51.276;6.472;2022-08-01T04:09:17;4.80;;;3.97;;
4810;SDS011;2419;51.276;6.472;2022-08-01T04:11:45;6.30;;;4.27;;
4810;SDS011;2419;51.276;6.472;2022-08-01T04:14:14;5.33;;;4.43;;
4810;SDS011;2419;51.276;6.472;2022-08-01T04:16:42;7.57;;;4.90;;
4810;SDS011;2419;51.276;6.472;2022-08-01T04:19:13;6.10;;;4.30;;
4810;SDS011;2419;51.276;6.472;2022-08-01T04:21:42;6.93;;;3.77;;
4810;SDS011;2419;51.276;6.472;2022-08-01T04:24:12;6.30;;;4.60;;
4810;SDS011;2419;51.276;6.472;2022-08-01T04:26:41;5.67;;;3.83;;
4810;SDS011;2419;51.276;6.472;2022-08-01T04:29:12;7.27;;;4.90;;
4810;SDS011;2419;51.276;6.472;2022-08-01T04:31:43;7.63;;;4.30;;
4810;SDS011;2419;51.276;6.472;2022-08-01T04:34:16;5.93;;;4.00;;
4810;SDS011;2419;51.276;6.472;2022-08-01T04:36:47;5.57;;;3.77;;
4810;SDS011;2419;51.276;6.472;2022-08-01T04:39:18;6.60;;;4.60;;
4810;SDS011;2419;51.276;6.472;2022-08-01T04:41:50;8.60;;;5.43;;
4810;SDS011;2419;51.276;6.472;2022-08-01T04:44:22;5.40;;;4.00;;
4810;SDS011;2419;51.276;6.472;2022-08-01T04:46:58;6.93;;;3.60;;
4810;SDS011;2419;51.276;6.472;2022-08-01T04:49:31;5.47;;;3.97;;
4810;SDS011;2419;51.276;6.472;2022-08-01T04:52:14;8.17;;;5.17;;
4810;SDS011;2419;51.276;6.472;2022-08-01T04:54:50;6.23;;;3.60;;
4810;SDS011;2419;51.276;6.472;2022-08-01T04:57:18;4.57;;;3.97;;
4810;SDS011;2419;51.276;6.472;2022-08-01T04:59:46;6.03;;;4.40;;
4810;SDS011;2419;51.276;6.472;2022-08-01T05:02:16;7.23;;;4.63;;
4810;SDS011;2419;51.276;6.472;2022-08-01T05:04:46;4.67;;;3.70;;
4810;SDS011;2419;51.276;6.472;2022-08-01T05:07:14;7.03;;;4.43;;
4810;SDS011;2419;51.276;6.472;2022-08-01T05:09:43;6.40;;;4.63;;
4810;SDS011;2419;51.276;6.472;2022-08-01T05:12:12;8.73;;;4.97;;
4810;SDS011;2419;51.276;6.472;2022-08-01T05:14:42;7.50;;;5.50;;
4810;SDS011;2419;51.276;6.472;2022-08-01T05:17:10;8.23;;;4.43;;
4810;SDS011;2419;51.276;6.472;2022-08-01T05:19:41;6.50;;;4.40;;
4810;SDS011;2419;51.276;6.472;2022-08-01T05:22:10;6.23;;;4.47;;
4810;SDS011;2419;51.276;6.472;2022-08-01T05:24:39;7.23;;;4.60;;
4810;SDS011;2419;51.276;6.472;2022-08-01T05:27:10;6.30;;;3.83;;
4810;SDS011;2419;51.276;6.472;2022-08-01T05:29:41;7.07;;;5.30;;
4810;SDS011;2419;51.276;6.472;2022-08-01T05:32:10;6.83;;;4.33;;
4810;SDS011;2419;51.276;6.472;2022-08-01T05:34:38;7.80;;;4.60;;
4810;SDS011;2419;51.276;6.472;2022-08-01T05:37:11;5.67;;;4.20;;
4810;SDS011;2419;51.276;6.472;2022-08-01T05:39:39;5.60;;;4.40;;
4810;SDS011;2419;51.276;6.472;2022-08-01T05:42:07;6.37;;;3.40;;
4810;SDS011;2419;51.276;6.472;2022-08-01T05:44:36;4.93;;;3.77;;
4810;SDS011;2419;51.276;6.472;2022-08-01T05:47:05;6.40;;;4.33;;
4810;SDS011;2419;51.276;6.472;2022-08-01T05:49:33;10.93;;;4.77;;
4810;SDS011;2419;51.276;6.472;2022-08-01T05:52:02;5.60;;;4.33;;
4810;SDS011;2419;51.276;6.472;2022-08-01T05:54:33;6.33;;;4.70;;
4810;SDS011;2419;51.276;6.472;2022-08-01T05:57:06;6.70;;;4.80;;
4810;SDS011;2419;51.276;6.472;2022-08-01T05:59:34;9.83;;;3.73;;
4810;SDS011;2419;51.276;6.472;2022-08-01T06:02:02;4.27;;;3.57;;
4810;SDS011;2419;51.276;6.472;2022-08-01T06:04:31;4.93;;;3.93;;
4810;SDS011;2419;51.276;6.472;2022-08-01T06:06:59;6.73;;;4.60;;
4810;SDS011;2419;51.276;6.472;2022-08-01T06:09:27;7.57;;;4.53;;
4810;SDS011;2419;51.276;6.472;2022-08-01T06:11:58;8.33;;;4.60;;
4810;SDS011;2419;51.276;6.472;2022-08-01T06:14:26;5.97;;;4.00;;
4810;SDS011;2419;51.276;6.472;2022-08-01T06:16:54;5.80;;;3.63;;
4810;SDS011;2419;51.276;6.472;2022-08-01T06:19:22;5.80;;;3.60;;
4810;SDS011;2419;51.276;6.472;2022-08-01T06:21:52;6.23;;;4.27;;
4810;SDS011;2419;51.276;6.472;2022-08-01T06:24:20;6.10;;;4.50;;
4810;SDS011;2419;51.276;6.472;2022-08-01T06:26:50;6.60;;;3.43;;
4810;SDS011;2419;51.276;6.472;2022-08-01T06:29:19;6.13;;;3.60;;
4810;SDS011;2419;51.276;6.472;2022-08-01T06:31:47;6.80;;;3.80;;
4810;SDS011;2419;51.276;6.472;2022-08-01T06:34:15;5.30;;;3.20;;
4810;SDS011;2419;51.276;6.472;2022-08-01T06:36:44;5.70;;;3.63;;
4810;SDS011;2419;51.276;6.472;2022-08-01T06:39:12;4.10;;;3.20;;
4810;SDS011;2419;51.276;6.472;2022-08-01T06:41:40;6.30;;;4.00;;
4810;SDS011;2419;51.276;6.472;2022-08-01T06:44:08;4.93;;;3.40;;
4810;SDS011;2419;51.276;6.472;2022-08-01T06:46:38;6.43;;;3.80;;
4810;SDS011;2419;51.276;6.472;2022-08-01T06:49:12;5.40;;;3.77;;
4810;SDS011;2419;51.276;6.472;2022-08-01T06:51:40;4.60;;;3.33;;
4810;SDS011;2419;51.276;6.472;2022-08-01T06:54:08;4.30;;;3.10;;
4810;SDS011;2419;51.276;6.472;2022-08-01T06:56:36;4.50;;;3.17;;
4810;SDS011;2419;51.276;6.472;2022-08-01T06:59:04;3.87;;;3.07;;
4810;SDS011;2419;51.276;6.472;2022-08-01T07:01:32;5.27;;;3.93;;
4810;SDS011;2419;51.276;6.472;2022-08-01T07:04:02;4.37;;;3.10;;
4810;SDS011;2419;51.276;6.472;2022-08-01T07:06:31;3.73;;;3.00;;
4810;SDS011;2419;51.276;6.472;2022-08-01T07:08:59;4.10;;;3.20;;
4810;SDS011;2419;51.276;6.472;2022-08-01T07:11:37;5.70;;;3.93;;
4810;SDS011;2419;51.276;6.472;2022-08-01T07:14:05;5.33;;;3.30;;
4810;SDS011;2419;51.276;6.472;2022-08-01T07:16:33;4.73;;;3.07;;
4810;SDS011;2419;51.276;6.472;2022-08-01T07:19:03;4.70;;;3.70;;
4810;SDS011;2419;51.276;6.472;2022-08-01T07:21:32;5.13;;;3.37;;
4810;SDS011;2419;51.276;6.472;2022-08-01T07:24:06;5.40;;;3.60;;
4810;SDS011;2419;51.276;6.472;2022-08-01T07:26:40;5.70;;;3.83;;
4810;SDS011;2419;51.276;6.472;2022-08-01T07:29:20;5.77;;;3.90;;
4810;SDS011;2419;51.276;6.472;2022-08-01T07:31:49;4.80;;;3.30;;
4810;SDS011;2419;51.276;6.472;2022-08-01T07:34:19;4.00;;;2.70;;
4810;SDS011;2419;51.276;6.472;2022-08-01T07:36:47;6.00;;;3.50;;
4810;SDS011;2419;51.276;6.472;2022-08-01T07:39:16;4.70;;;2.93;;
4810;SDS011;2419;51.276;6.472;2022-08-01T07:41:44;4.70;;;3.43;;
4810;SDS011;2419;51.276;6.472;2022-08-01T07:44:32;5.50;;;3.47;;
4810;SDS011;2419;51.276;6.472;2022-08-01T07:47:00;4.43;;;3.00;;
4810;SDS011;2419;51.276;6.472;2022-08-01T07:50:03;2.87;;;2.50;;
4810;SDS011;2419;51.276;6.472;2022-08-01T07:52:34;4.10;;;2.57;;
4810;SDS011;2419;51.276;6.472;2022-08-01T07:55:23;3.97;;;2.90;;
4810;SDS011;2419;51.276;6.472;2022-08-01T07:58:21;2.70;;;2.20;;
4810;SDS011;2419;51.276;6.472;2022-08-01T08:00:49;3.80;;;3.07;;
4810;SDS011;2419;51.276;6.472;2022-08-01T08:03:17;3.10;;;2.77;;
4810;SDS011;2419;51.276;6.472;2022-08-01T08:05:47;4.00;;;2.50;;
4810;SDS011;2419;51.276;6.472;2022-08-01T08:08:26;4.33;;;3.60;;
4810;SDS011;2419;51.276;6.472;2022-08-01T08:10:54;2.50;;;2.30;;
4810;SDS011;2419;51.276;6.472;2022-08-01T08:13:23;3.50;;;2.80;;
4810;SDS011;2419;51.276;6.472;2022-08-01T08:15:51;4.53;;;3.03;;
4810;SDS011;2419;51.276;6.472;2022-08-01T08:18:19;4.90;;;2.43;;
4810;SDS011;2419;51.276;6.472;2022-08-01T08:20:49;2.23;;;2.03;;
4810;SDS011;2419;51.276;6.472;2022-08-01T08:23:17;2.57;;;2.30;;
4810;SDS011;2419;51.276;6.472;2022-08-01T08:26:09;3.60;;;2.80;;
4810;SDS011;2419;51.276;6.472;2022-08-01T08:28:37;3.57;;;2.60;;
4810;SDS011;2419;51.276;6.472;2022-08-01T08:31:06;2.97;;;2.37;;
4810;SDS011;2419;51.276;6.472;2022-08-01T08:33:54;3.60;;;2.37;;
4810;SDS011;2419;51.276;6.472;2022-08-01T08:36:23;2.63;;;2.10;;
4810;SDS011;2419;51.276;6.472;2022-08-01T08:38:56;2.63;;;1.87;;
4810;SDS011;2419;51.276;6.472;2022-08-01T08:41:26;2.13;;;1.93;;
4810;SDS011;2419;51.276;6.472;2022-08-01T08:44:04;2.50;;;1.93;;
4810;SDS011;2419;51.276;6.472;2022-08-01T08:46:38;2.33;;;2.00;;
4810;SDS011;2419;51.276;6.472;2022-08-01T08:49:10;4.93;;;2.30;;
4810;SDS011;2419;51.276;6.472;2022-08-01T08:51:41;2.90;;;1.70;;
4810;SDS011;2419;51.276;6.472;2022-08-01T08:54:11;2.27;;;1.87;;
4810;SDS011;2419;51.276;6.472;2022-08-01T08:56:40;1.97;;;1.83;;
4810;SDS011;2419;51.276;6.472;2022-08-01T08:59:11;1.80;;;1.50;;
4810;SDS011;2419;51.276;6.472;2022-08-01T09:01:41;2.63;;;2.00;;
4810;SDS011;2419;51.276;6.472;2022-08-01T09:04:09;3.10;;;2.03;;
4810;SDS011;2419;51.276;6.472;2022-08-01T09:06:38;1.53;;;1.20;;
4810;SDS011;2419;51.276;6.472;2022-08-01T09:09:08;2.53;;;1.93;;
4810;SDS011;2419;51.276;6.472;2022-08-01T09:11:37;3.37;;;2.20;;
4810;SDS011;2419;51.276;6.472;2022-08-01T09:14:06;2.20;;;2.00;;
4810;SDS011;2419;51.276;6.472;2022-08-01T09:16:37;1.90;;;1.60;;
4810;SDS011;2419;51.276;6.472;2022-08-01T09:19:14;3.20;;;2.13;;
4810;SDS011;2419;51.276;6.472;2022-08-01T09:22:04;2.10;;;1.80;;
4810;SDS011;2419;51.276;6.472;2022-08-01T09:24:37;2.23;;;1.67;;
4810;SDS011;2419;51.276;6.472;2022-08-01T09:27:16;2.37;;;1.77;;
4810;SDS011;2419;51.276;6.472;2022-08-01T09:29:48;2.40;;;2.00;;
4810;SDS011;2419;51.276;6.472;2022-08-01T09:32:28;1.83;;;1.40;;
4810;SDS011;2419;51.276;6.472;2022-08-01T09:40:46;2.17;;;1.97;;
4810;SDS011;2419;51.276;6.472;2022-08-01T09:43:16;1.63;;;1.40;;
4810;SDS011;2419;51.276;6.472;2022-08-01T09:45:44;2.00;;;1.80;;
4810;SDS011;2419;51.276;6.472;2022-08-01T09:48:16;1.50;;;1.40;;
4810;SDS011;2419;51.276;6.472;2022-08-01T09:50:49;2.60;;;1.33;;
4810;SDS011;2419;51.276;6.472;2022-08-01T09:53:21;2.17;;;1.90;;
4810;SDS011;2419;51.276;6.472;2022-08-01T09:56:09;1.60;;;1.50;;
4810;SDS011;2419;51.276;6.472;2022-08-01T09:58:50;1.67;;;1.57;;
4810;SDS011;2419;51.276;6.472;2022-08-01T10:01:26;1.50;;;1.20;;
4810;SDS011;2419;51.276;6.472;2022-08-01T10:04:09;1.47;;;1.37;;
4810;SDS011;2419;51.276;6.472;2022-08-01T10:06:41;1.27;;;1.17;;
4810;SDS011;2419;51.276;6.472;2022-08-01T10:09:11;1.23;;;1.13;;
4810;SDS011;2419;51.276;6.472;2022-08-01T10:11:43;1.37;;;1.10;;
4810;SDS011;2419;51.276;6.472;2022-08-01T10:14:13;1.93;;;1.60;;
4810;SDS011;2419;51.276;6.472;2022-08-01T10:16:43;2.07;;;1.53;;
4810;SDS011;2419;51.276;6.472;2022-08-01T10:19:20;1.10;;;1.00;;
4810;SDS011;2419;51.276;6.472;2022-08-01T10:21:50;1.40;;;1.20;;
4810;SDS011;2419;51.276;6.472;2022-08-01T10:24:24;1.60;;;1.50;;
4810;SDS011;2419;51.276;6.472;2022-08-01T10:27:01;1.70;;;1.47;;
4810;SDS011;2419;51.276;6.472;2022-08-01T10:29:42;1.20;;;1.10;;
4810;SDS011;2419;51.276;6.472;2022-08-01T10:32:35;1.57;;;1.27;;
4810;SDS011;2419;51.276;6.472;2022-08-01T10:35:05;1.30;;;1.20;;
4810;SDS011;2419;51.276;6.472;2022-08-01T10:37:41;1.17;;;1.07;;
4810;SDS011;2419;51.276;6.472;2022-08-01T10:40:18;1.13;;;1.03;;
4810;SDS011;2419;51.276;6.472;2022-08-01T10:42:58;1.20;;;1.03;;
4810;SDS011;2419;51.276;6.472;2022-08-01T10:48:22;1.10;;;1.00;;
4810;SDS011;2419;51.276;6.472;2022-08-01T10:51:04;1.23;;;1.00;;
4810;SDS011;2419;51.276;6.472;2022-08-01T10:53:47;1.10;;;1.00;;
4810;SDS011;2419;51.276;6.472;2022-08-01T10:56:45;1.20;;;1.10;;
4810;SDS011;2419;51.276;6.472;2022-08-01T10:59:25;0.87;;;0.87;;
4810;SDS011;2419;51.276;6.472;2022-08-01T11:02:31;1.30;;;1.10;;
4810;SDS011;2419;51.276;6.472;2022-08-01T11:05:12;0.90;;;0.90;;
4810;SDS011;2419;51.276;6.472;2022-08-01T11:07:52;1.10;;;1.00;;
4810;SDS011;2419;51.276;6.472;2022-08-01T11:10:22;1.33;;;1.07;;
4810;SDS011;2419;51.276;6.472;2022-08-01T11:12:55;0.80;;;0.80;;
4810;SDS011;2419;51.276;6.472;2022-08-01T11:15:32;1.30;;;1.20;;
4810;SDS011;2419;51.276;6.472;2022-08-01T11:22:03;1.30;;;1.20;;
4810;SDS011;2419;51.276;6.472;2022-08-01T11:24:54;1.30;;;0.90;;
4810;SDS011;2419;51.276;6.472;2022-08-01T11:27:30;1.20;;;1.03;;
4810;SDS011;2419;51.276;6.472;2022-08-01T11:30:32;1.23;;;1.13;;
4810;SDS011;2419;51.276;6.472;2022-08-01T11:33:00;1.20;;;1.10;;
4810;SDS011;2419;51.276;6.472;2022-08-01T11:35:37;1.10;;;1.00;;
4810;SDS011;2419;51.276;6.472;2022-08-01T11:38:25;0.93;;;0.87;;
4810;SDS011;2419;51.276;6.472;2022-08-01T11:44:10;1.00;;;1.00;;
4810;SDS011;2419;51.276;6.472;2022-08-01T11:46:52;1.07;;;1.00;;
4810;SDS011;2419;51.276;6.472;2022-08-01T11:52:31;0.90;;;0.90;;
4810;SDS011;2419;51.276;6.472;2022-08-01T11:55:05;1.10;;;1.00;;
4810;SDS011;2419;51.276;6.472;2022-08-01T11:57:37;1.27;;;1.17;;
4810;SDS011;2419;51.276;6.472;2022-08-01T12:00:34;1.30;;;1.20;;
4810;SDS011;2419;51.276;6.472;2022-08-01T12:03:32;1.27;;;1.17;;
4810;SDS011;2419;51.276;6.472;2022-08-01T12:06:13;1.23;;;1.13;;
4810;SDS011;2419;51.276;6.472;2022-08-01T12:09:34;2.33;;;1.57;;
4810;SDS011;2419;51.276;6.472;2022-08-01T12:12:19;1.20;;;1.10;;
4810;SDS011;2419;51.276;6.472;2022-08-01T12:14:55;1.30;;;1.20;;
4810;SDS011;2419;51.276;6.472;2022-08-01T12:17:36;1.27;;;1.17;;
4810;SDS011;2419;51.276;6.472;2022-08-01T12:20:34;1.40;;;1.30;;
4810;SDS011;2419;51.276;6.472;2022-08-01T12:23:59;2.33;;;1.70;;
4810;SDS011;2419;51.276;6.472;2022-08-01T12:26:38;1.80;;;1.40;;
4810;SDS011;2419;51.276;6.472;2022-08-01T12:29:40;1.30;;;1.20;;
4810;SDS011;2419;51.276;6.472;2022-08-01T12:32:24;1.20;;;1.10;;
4810;SDS011;2419;51.276;6.472;2022-08-01T12:35:11;1.20;;;1.10;;
4810;SDS011;2419;51.276;6.472;2022-08-01T12:38:20;1.30;;;1.20;;
4810;SDS011;2419;51.276;6.472;2022-08-01T12:41:30;1.50;;;1.27;;
4810;SDS011;2419;51.276;6.472;2022-08-01T12:44:25;1.30;;;1.20;;
4810;SDS011;2419;51.276;6.472;2022-08-01T12:46:56;1.30;;;1.10;;
4810;SDS011;2419;51.276;6.472;2022-08-01T12:49:29;2.03;;;1.20;;
4810;SDS011;2419;51.276;6.472;2022-08-01T12:51:57;1.30;;;1.20;;
4810;SDS011;2419;51.276;6.472;2022-08-01T12:54:27;1.30;;;1.20;;
4810;SDS011;2419;51.276;6.472;2022-08-01T12:56:57;1.10;;;1.00;;
4810;SDS011;2419;51.276;6.472;2022-08-01T12:59:27;0.90;;;0.90;;
4810;SDS011;2419;51.276;6.472;2022-08-01T13:01:55;1.10;;;1.00;;
4810;SDS011;2419;51.276;6.472;2022-08-01T13:04:27;1.00;;;0.90;;
4810;SDS011;2419;51.276;6.472;2022-08-01T13:06:55;1.27;;;1.10;;
4810;SDS011;2419;51.276;6.472;2022-08-01T13:09:23;1.40;;;1.10;;
4810;SDS011;2419;51.276;6.472;2022-08-01T13:12:09;1.30;;;1.20;;
4810;SDS011;2419;51.276;6.472;2022-08-01T13:14:54;1.10;;;1.00;;
4810;SDS011;2419;51.276;6.472;2022-08-01T13:17:47;1.00;;;1.00;;
4810;SDS011;2419;51.276;6.472;2022-08-01T13:21:08;1.30;;;1.20;;
4810;SDS011;2419;51.276;6.472;2022-08-01T13:24:03;1.43;;;1.20;;
4810;SDS011;2419;51.276;6.472;2022-08-01T13:26:52;1.20;;;1.00;;
4810;SDS011;2419;51.276;6.472;2022-08-01T13:29:32;1.20;;;0.90;;
4810;SDS011;2419;51.276;6.472;2022-08-01T13:32:14;2.10;;;0.90;;
4810;SDS011;2419;51.276;6.472;2022-08-01T13:35:03;1.20;;;1.03;;
4810;SDS011;2419;51.276;6.472;2022-08-01T13:37:36;1.03;;;1.00;;
4810;SDS011;2419;51.276;6.472;2022-08-01T13:40:10;1.20;;;1.10;;
4810;SDS011;2419;51.276;6.472;2022-08-01T13:42:38;1.40;;;1.20;;
4810;SDS011;2419;51.276;6.472;2022-08-01T13:45:16;1.30;;;1.20;;
4810;SDS011;2419;51.276;6.472;2022-08-01T13:47:49;1.33;;;1.23;;
4810;SDS011;2419;51.276;6.472;2022-08-01T13:50:48;1.07;;;1.00;;
4810;SDS011;2419;51.276;6.472;2022-08-01T13:53:38;1.00;;;0.90;;
4810;SDS011;2419;51.276;6.472;2022-08-01T13:56:09;1.23;;;1.13;;
4810;SDS011;2419;51.276;6.472;2022-08-01T13:58:59;1.07;;;0.97;;
4810;SDS011;2419;51.276;6.472;2022-08-01T14:01:36;1.30;;;1.20;;
4810;SDS011;2419;51.276;6.472;2022-08-01T14:04:30;1.10;;;1.00;;
4810;SDS011;2419;51.276;6.472;2022-08-01T14:06:59;1.60;;;1.20;;
4810;SDS011;2419;51.276;6.472;2022-08-01T14:09:43;1.10;;;1.00;;
4810;SDS011;2419;51.276;6.472;2022-08-01T14:12:38;1.40;;;1.30;;
4810;SDS011;2419;51.276;6.472;2022-08-01T14:15:11;1.37;;;1.10;;
4810;SDS011;2419;51.276;6.472;2022-08-01T14:18:11;1.20;;;1.10;;
4810;SDS011;2419;51.276;6.472;2022-08-01T14:20:44;1.20;;;1.10;;
4810;SDS011;2419;51.276;6.472;2022-08-01T14:23:30;1.27;;;1.17;;
4810;SDS011;2419;51.276;6.472;2022-08-01T14:26:01;1.00;;;1.00;;
4810;SDS011;2419;51.276;6.472;2022-08-01T14:28:59;1.53;;;1.30;;
4810;SDS011;2419;51.276;6.472;2022-08-01T14:31:40;1.20;;;1.10;;
4810;SDS011;2419;51.276;6.472;2022-08-01T14:34:15;0.80;;;0.80;;
4810;SDS011;2419;51.276;6.472;2022-08-01T14:36:45;1.43;;;1.33;;
4810;SDS011;2419;51.276;6.472;2022-08-01T14:39:14;1.10;;;1.00;;
4810;SDS011;2419;51.276;6.472;2022-08-01T14:41:53;1.30;;;1.20;;
4810;SDS011;2419;51.276;6.472;2022-08-01T14:44:35;1.30;;;1.00;;
4810;SDS011;2419;51.276;6.472;2022-08-01T14:47:14;1.10;;;1.00;;
4810;SDS011;2419;51.276;6.472;2022-08-01T14:50:17;1.07;;;0.97;;
4810;SDS011;2419;51.276;6.472;2022-08-01T14:52:48;1.40;;;1.00;;
4810;SDS011;2419;51.276;6.472;2022-08-01T14:55:18;2.23;;;1.20;;
4810;SDS011;2419;51.276;6.472;2022-08-01T14:57:56;1.00;;;0.90;;
4810;SDS011;2419;51.276;6.472;2022-08-01T15:00:25;1.00;;;1.00;;
4810;SDS011;2419;51.276;6.472;2022-08-01T15:02:53;1.30;;;1.20;;
4810;SDS011;2419;51.276;6.472;2022-08-01T15:05:23;1.30;;;1.03;;
4810;SDS011;2419;51.276;6.472;2022-08-01T15:08:04;1.03;;;0.97;;
4810;SDS011;2419;51.276;6.472;2022-08-01T15:10:49;1.20;;;1.10;;
4810;SDS011;2419;51.276;6.472;2022-08-01T15:13:17;1.10;;;1.00;;
4810;SDS011;2419;51.276;6.472;2022-08-01T15:15:45;1.10;;;1.00;;
4810;SDS011;2419;51.276;6.472;2022-08-01T15:18:14;1.20;;;1.10;;
4810;SDS011;2419;51.276;6.472;2022-08-01T15:20:43;1.90;;;1.07;;
4810;SDS011;2419;51.276;6.472;2022-08-01T15:23:11;1.13;;;1.00;;
4810;SDS011;2419;51.276;6.472;2022-08-01T15:25:41;1.07;;;0.97;;
4810;SDS011;2419;51.276;6.472;2022-08-01T15:28:11;1.00;;;0.90;;
4810;SDS011;2419;51.276;6.472;2022-08-01T15:30:40;0.90;;;0.90;;
4810;SDS011;2419;51.276;6.472;2022-08-01T15:33:08;0.90;;;0.90;;
4810;SDS011;2419;51.276;6.472;2022-08-01T15:35:36;1.27;;;1.10;;
4810;SDS011;2419;51.276;6.472;2022-08-01T15:38:06;1.07;;;0.97;;
4810;SDS011;2419;51.276;6.472;2022-08-01T15:40:34;1.37;;;1.27;;
4810;SDS011;2419;51.276;6.472;2022-08-01T15:43:02;1.20;;;1.00;;
4810;SDS011;2419;51.276;6.472;2022-08-01T15:45:30;1.30;;;1.20;;
4810;SDS011;2419;51.276;6.472;2022-08-01T15:48:14;3.30;;;1.00;;
4810;SDS011;2419;51.276;6.472;2022-08-01T15:50:43;1.20;;;1.10;;
4810;SDS011;2419;51.276;6.472;2022-08-01T15:53:13;1.40;;;1.10;;
4810;SDS011;2419;51.276;6.472;2022-08-01T15:55:42;1.70;;;1.07;;
4810;SDS011;2419;51.276;6.472;2022-08-01T15:58:18;1.00;;;0.90;;
4810;SDS011;2419;51.276;6.472;2022-08-01T16:00:46;1.50;;;1.00;;
4810;SDS011;2419;51.276;6.472;2022-08-01T16:03:14;1.23;;;1.13;;
4810;SDS011;2419;51.276;6.472;2022-08-01T16:05:42;0.90;;;0.90;;
4810;SDS011;2419;51.276;6.472;2022-08-01T16:08:11;2.80;;;1.10;;
4810;SDS011;2419;51.276;6.472;2022-08-01T16:10:41;1.00;;;1.00;;
4810;SDS011;2419;51.276;6.472;2022-08-01T16:13:10;0.87;;;0.87;;
4810;SDS011;2419;51.276;6.472;2022-08-01T16:15:39;1.53;;;1.20;;
4810;SDS011;2419;51.276;6.472;2022-08-01T16:18:07;1.47;;;1.10;;